Time;durP1;ratioP1;P1;durP2;ratioP2;P2;SDS_P1;SDS_P2;PMS_P1;PMS_P2;Temp;Humidity;BMP_temperature;BMP_pressure;BME280_temperature;BME280_humidity;BME280_pressure;Samples;Min_cycle;Max_cycle;Signal;HPM_P1;HPM_P2
2021/08/28 16:10:00;;;;;;;4.32;2.20;;;;;;;22.63;46.58;102346.38;5152801;27;20156;-75
2021/08/28 16:12:26;;;;;;;10.63;2.78;;;;;;;22.48;45.73;102348.19;5134049;27;20043;-74
2021/08/28 16:14:52;;;;;;;8.88;2.20;;;;;;;22.33;45.51;102353.53;5144728;27;20079;-74
2021/08/28 16:17:18;;;;;;;5.18;2.67;;;;;;;22.26;45.25;102352.69;5134262;27;20504;-75
2021/08/28 16:19:43;;;;;;;6.18;2.60;;;;;;;22.24;44.97;102354.47;5151192;27;20070;-75
2021/08/28 16:22:09;;;;;;;9.80;3.30;;;;;;;22.18;44.91;102346.59;5151292;27;20102;-73
2021/08/28 16:24:34;;;;;;;9.68;3.10;;;;;;;22.10;44.48;102351.88;5133852;27;20034;-75
2021/08/28 16:26:59;;;;;;;6.18;3.13;;;;;;;21.99;44.65;102340.53;5133747;27;20034;-76
2021/08/28 16:29:25;;;;;;;8.45;3.30;;;;;;;22.02;44.51;102347.53;5133585;27;20059;-76
2021/08/28 16:31:52;;;;;;;8.18;3.25;;;;;;;21.88;44.66;102345.81;5150811;27;20372;-73
2021/08/28 16:34:21;;;;;;;6.82;3.30;;;;;;;21.75;44.69;102350.25;5133709;27;20030;-74
2021/08/28 16:36:47;;;;;;;7.43;3.20;;;;;;;21.72;44.65;102352.00;5152199;27;20027;-75
2021/08/28 16:39:13;;;;;;;8.80;2.90;;;;;;;21.75;44.61;102344.13;5133787;27;20450;-74
2021/08/28 16:41:39;;;;;;;7.80;3.05;;;;;;;21.78;44.65;102350.25;5150769;27;20108;-75
2021/08/28 16:44:04;;;;;;;8.55;3.65;;;;;;;21.79;44.22;102345.88;5150684;27;20148;-75
2021/08/28 16:46:30;;;;;;;10.23;3.17;;;;;;;21.75;44.39;102346.75;5150683;27;20058;-75
2021/08/28 16:48:56;;;;;;;7.35;3.20;;;;;;;21.76;44.61;102349.38;5150487;27;20487;-74
2021/08/28 16:51:26;;;;;;;8.75;2.92;;;;;;;21.83;44.16;102347.59;5133430;27;20485;-75
2021/08/28 16:53:53;;;;;;;11.48;3.75;;;;;;;21.86;43.92;102341.47;5150651;27;20062;-74
2021/08/28 16:56:18;;;;;;;8.65;3.22;;;;;;;21.82;44.31;102337.13;5133338;27;20080;-75
2021/08/28 16:58:44;;;;;;;7.43;3.20;;;;;;;21.84;43.97;102346.75;5150306;27;20064;-75
2021/08/28 17:01:09;;;;;;;11.30;3.70;;;;;;;21.94;43.90;102343.19;5150442;27;20095;-74
2021/08/28 17:03:35;;;;;;;7.15;3.75;;;;;;;21.88;44.13;102337.09;5132942;27;20034;-75
2021/08/28 17:06:00;;;;;;;9.30;4.00;;;;;;;21.73;44.25;102338.91;5132952;27;20058;-76
2021/08/28 17:08:26;;;;;;;11.05;3.58;;;;;;;21.63;44.79;102342.44;5151377;27;20043;-75
2021/08/28 17:10:51;;;;;;;7.28;3.17;;;;;;;21.61;44.86;102343.31;5150000;27;20114;-74
2021/08/28 17:13:17;;;;;;;10.68;3.30;;;;;;;21.63;44.99;102344.19;5151229;27;20034;-74
2021/08/28 17:15:43;;;;;;;10.60;3.97;;;;;;;21.66;45.30;102349.41;5150323;27;20560;-76
2021/08/28 17:18:08;;;;;;;13.40;4.22;;;;;;;21.65;45.62;102352.91;5150174;27;20114;-76
2021/08/28 17:20:34;;;;;;;10.45;4.18;;;;;;;21.53;45.86;102352.03;5140692;27;20114;-75
2021/08/28 17:23:00;;;;;;;8.10;3.88;;;;;;;21.54;45.89;102353.81;5136808;27;20035;-76
2021/08/28 17:25:25;;;;;;;8.93;3.80;;;;;;;21.46;46.27;102352.94;5137345;27;20157;-74
2021/08/28 17:27:51;;;;;;;10.30;3.67;;;;;;;21.42;46.62;102356.44;5118787;27;20027;-75
2021/08/28 17:30:16;;;;;;;9.35;3.50;;;;;;;21.48;46.49;102359.03;5119024;27;20023;-76
2021/08/28 17:32:41;;;;;;;7.53;3.40;;;;;;;21.46;46.63;102349.44;5118737;27;20027;-76
2021/08/28 17:35:07;;;;;;;10.00;3.53;;;;;;;21.48;46.70;102347.69;5135929;27;20480;-76
2021/08/28 17:37:33;;;;;;;8.93;3.50;;;;;;;21.49;46.68;102347.72;5137130;27;20122;-74
2021/08/28 17:39:59;;;;;;;7.18;3.13;;;;;;;21.41;46.73;102346.84;5118551;27;20063;-75
2021/08/28 17:42:24;;;;;;;7.20;3.22;;;;;;;;;;5118852;27;20023;-74
2021/08/28 17:44:49;;;;;;;5.95;3.17;;;;;;;21.46;46.90;102355.56;5135844;27;20046;-75
2021/08/28 17:47:15;;;;;;;7.47;3.75;;;;;;;21.42;47.13;102355.56;5137022;27;20488;-75
2021/08/28 17:49:40;;;;;;;9.77;3.40;;;;;;;21.32;47.36;102349.44;5135613;27;20038;-79
2021/08/28 17:52:06;;;;;;;11.77;3.35;;;;;;;21.39;47.34;102353.78;5135757;27;20499;-77
2021/08/28 17:54:32;;;;;;;9.77;3.63;;;;;;;21.33;47.53;102352.03;5135630;27;20050;-75
2021/08/28 17:56:57;;;;;;;9.23;3.53;;;;;;;21.43;47.40;102349.47;5135957;27;20145;-76
2021/08/28 17:59:23;;;;;;;13.93;3.65;;;;;;;21.36;47.66;102352.06;5118272;27;20503;-76
2021/08/28 18:01:48;;;;;;;10.98;3.60;;;;;;;21.42;47.88;102350.31;5118566;27;20038;-75
2021/08/28 18:04:14;;;;;;;9.85;3.65;;;;;;;21.50;47.69;102346.81;5136530;27;20027;-75
2021/08/28 18:06:40;;;;;;;10.80;3.60;;;;;;;21.59;47.42;102347.69;5135611;27;20404;-74
2021/08/28 18:09:05;;;;;;;7.25;3.40;;;;;;;21.64;47.35;102357.25;5135366;27;20039;-76
2021/08/28 18:11:30;;;;;;;9.63;3.65;;;;;;;21.65;47.39;102356.41;5118119;27;20023;-75
2021/08/28 18:13:56;;;;;;;9.50;3.28;;;;;;;21.68;47.44;102352.91;5135203;27;20464;-75
2021/08/28 18:16:21;;;;;;;8.75;2.85;;;;;;;21.70;47.51;102359.00;5135034;27;20027;-76
2021/08/28 18:18:47;;;;;;;8.57;3.88;;;;;;;21.70;47.41;102359.00;5101051;27;20037;-76
2021/08/28 18:21:13;;;;;;;10.77;3.42;;;;;;;21.71;47.50;102361.63;5135054;27;20031;-77
2021/08/28 18:23:38;;;;;;;7.35;3.42;;;;;;;21.71;47.46;102355.50;5135051;27;20027;-76
2021/08/28 18:26:04;;;;;;;9.00;3.28;;;;;;;21.69;47.61;102357.28;5134949;27;20027;-77
2021/08/28 18:28:29;;;;;;;9.88;3.83;;;;;;;21.71;47.66;102363.34;5117646;27;20023;-76
2021/08/28 18:30:56;;;;;;;8.05;3.17;;;;;;;21.68;47.74;102358.13;5135716;27;20023;-77
2021/08/28 18:33:22;;;;;;;9.98;3.72;;;;;;;21.69;47.72;102362.50;5117195;27;20023;-76
2021/08/28 18:35:47;;;;;;;8.63;3.63;;;;;;;21.66;47.86;102362.50;5117569;27;20034;-76
2021/08/28 18:38:13;;;;;;;7.10;3.20;;;;;;;21.65;47.93;102366.00;5134734;27;20431;-77
2021/08/28 18:40:38;;;;;;;5.97;3.20;;;;;;;21.64;48.23;102369.50;5136059;27;20027;-75
2021/08/28 18:43:03;;;;;;;7.72;3.15;;;;;;;21.61;48.17;102369.50;5135777;27;20031;-75
2021/08/28 18:45:29;;;;;;;7.88;3.70;;;;;;;21.63;48.06;102367.75;5117317;27;20114;-77
2021/08/28 18:47:54;;;;;;;10.25;3.72;;;;;;;21.64;48.12;102374.72;5134427;27;20500;-75
2021/08/28 18:50:21;;;;;;;7.72;3.45;;;;;;;21.63;48.28;102373.88;5134558;27;20042;-78
2021/08/28 18:52:47;;;;;;;9.52;3.70;;;;;;;21.63;48.05;102366.00;5117275;27;20027;-76
2021/08/28 18:55:13;;;;;;;9.20;3.20;;;;;;;21.62;48.21;102376.47;5135727;27;20027;-76
2021/08/28 18:57:39;;;;;;;9.77;3.58;;;;;;;21.63;48.29;102380.84;5135370;27;20110;-76
2021/08/28 19:00:06;;;;;;;8.25;3.45;;;;;;;21.63;48.17;102375.63;5135309;27;20050;-76
2021/08/28 19:02:31;;;;;;;7.68;3.65;;;;;;;21.63;48.25;102384.34;5135426;27;20023;-76
2021/08/28 19:04:56;;;;;;;10.98;3.38;;;;;;;21.62;48.55;102379.97;5135339;27;20026;-75
2021/08/28 19:07:22;;;;;;;11.98;3.60;;;;;;;21.62;48.21;102381.72;5117011;27;20023;-76
2021/08/28 19:09:47;;;;;;;7.07;3.40;;;;;;;21.60;48.44;102384.38;5133941;27;20086;-76
2021/08/28 19:12:13;;;;;;;7.82;3.47;;;;;;;21.59;48.52;102386.97;5135134;27;20031;-76
2021/08/28 19:14:39;;;;;;;10.43;4.00;;;;;;;21.61;48.41;102391.34;5117025;27;20019;-76
2021/08/28 19:17:05;;;;;;;8.52;3.50;;;;;;;21.59;48.48;102393.09;5135171;27;20023;-76
2021/08/28 19:19:31;;;;;;;7.38;3.22;;;;;;;21.57;48.80;102397.44;5116757;27;20100;-80
2021/08/28 19:21:57;;;;;;;11.43;3.53;;;;;;;21.56;48.74;102403.56;5133657;27;20030;-75
2021/08/28 19:24:23;;;;;;;9.23;3.50;;;;;;;21.61;48.72;102403.56;5116564;27;20031;-74
2021/08/28 19:26:48;;;;;;;5.97;3.10;;;;;;;21.62;48.73;102406.16;5134861;27;20496;-73
2021/08/28 19:29:13;;;;;;;8.85;3.50;;;;;;;21.61;48.74;102400.94;5133554;27;20031;-74
2021/08/28 19:31:39;;;;;;;8.32;3.10;;;;;;;21.63;48.70;102402.69;5133845;27;20027;-74
2021/08/28 19:34:04;;;;;;;8.68;3.13;;;;;;;21.62;48.90;102405.28;5116417;27;20469;-75
2021/08/28 19:36:30;;;;;;;8.02;3.08;;;;;;;21.62;48.82;102406.16;5116344;27;20027;-74
2021/08/28 19:38:55;;;;;;;8.25;3.47;;;;;;;21.63;48.84;102407.06;5134935;27;20011;-76
2021/08/28 19:41:21;;;;;;;7.28;3.22;;;;;;;21.64;48.90;102401.78;5133260;27;20030;-74
2021/08/28 19:43:47;;;;;;;7.68;2.83;;;;;;;21.65;48.98;102405.31;5133425;27;20066;-74
2021/08/28 19:46:12;;;;;;;9.90;3.30;;;;;;;21.63;48.93;102400.06;5133452;27;20027;-74
2021/08/28 19:48:38;;;;;;;7.80;3.30;;;;;;;21.67;48.89;102401.81;5134715;27;20027;-75
2021/08/28 19:51:04;;;;;;;5.85;2.95;;;;;;;21.65;49.14;102406.19;5133496;27;20038;-75
2021/08/28 19:53:29;;;;;;;7.63;3.30;;;;;;;21.65;49.18;102400.94;5133476;27;20114;-75
2021/08/28 19:55:57;;;;;;;5.60;3.35;;;;;;;21.66;49.02;102405.28;5134534;27;20050;-75
2021/08/28 19:58:23;;;;;;;8.15;3.22;;;;;;;21.65;49.26;102400.06;5133290;27;20015;-75
2021/08/28 20:00:48;;;;;;;8.40;3.30;;;;;;;21.64;49.38;102400.94;5116176;28;20422;-74
2021/08/28 20:03:14;;;;;;;8.27;3.30;;;;;;;21.66;49.32;102407.03;5133271;27;20027;-74
2021/08/28 20:05:39;;;;;;;6.00;3.10;;;;;;;21.64;49.21;102407.03;5133308;27;20049;-74
2021/08/28 20:08:05;;;;;;;8.75;3.33;;;;;;;21.66;49.65;102397.44;5132900;28;20072;-75
2021/08/28 20:10:31;;;;;;;11.15;3.28;;;;;;;21.66;49.33;102407.03;5133139;27;20548;-75
2021/08/28 20:12:57;;;;;;;8.63;3.15;;;;;;;21.75;49.45;102409.63;5116108;28;20054;-74
2021/08/28 20:15:24;;;;;;;10.77;3.40;;;;;;;21.72;48.96;102413.13;5133082;28;20019;-75
2021/08/28 20:17:50;;;;;;;9.63;3.38;;;;;;;21.80;51.00;102410.53;5116145;28;20031;-75
2021/08/28 20:20:15;;;;;;;10.52;3.33;;;;;;;21.79;51.14;102411.38;5116385;28;20071;-76
2021/08/28 20:22:41;;;;;;;8.77;3.08;;;;;;;21.58;54.07;102417.53;5134358;27;20023;-76
2021/08/28 20:25:07;;;;;;;11.25;3.38;;;;;;;21.47;54.87;102414.94;5134284;27;20473;-73
2021/08/28 20:27:33;;;;;;;10.05;2.65;;;;;;;21.30;57.40;102414.91;5134365;27;20528;-73
2021/08/28 20:29:58;;;;;;;10.88;3.13;;;;;;;21.12;57.11;102409.66;5133097;28;20126;-75
2021/08/28 20:32:24;;;;;;;12.63;3.28;;;;;;;21.24;56.28;102408.78;5134245;27;20054;-73
2021/08/28 20:34:50;;;;;;;8.65;3.28;;;;;;;21.28;55.48;102403.56;5098981;28;20080;-74
2021/08/28 20:37:16;;;;;;;6.85;2.70;;;;;;;21.22;55.02;102394.84;5115884;28;20053;-75
2021/08/28 20:39:41;;;;;;;6.57;2.92;;;;;;;21.17;54.65;102395.69;5115842;27;20023;-75
2021/08/28 20:42:07;;;;;;;6.03;2.70;;;;;;;21.13;55.17;102391.34;5115724;28;20027;-74
2021/08/28 20:44:32;;;;;;;5.88;2.80;;;;;;;21.10;55.56;102393.97;5115617;28;20030;-77
2021/08/28 20:46:58;;;;;;;13.90;3.10;;;;;;;21.07;55.15;102393.06;5098974;28;20048;-73
2021/08/28 20:49:23;;;;;;;7.82;2.88;;;;;;;21.07;55.49;102388.72;5132680;28;20030;-76
2021/08/28 20:51:49;;;;;;;6.78;2.95;;;;;;;21.04;57.72;102388.72;5115670;28;20030;-75
2021/08/28 20:54:14;;;;;;;5.18;2.83;;;;;;;21.08;55.50;102384.38;5098588;28;20058;-77
2021/08/28 20:56:40;;;;;;;5.00;2.72;;;;;;;21.09;55.64;102389.59;5136341;27;20054;-75
2021/08/28 20:59:05;;;;;;;7.93;2.75;;;;;;;21.07;54.89;102388.72;5119536;27;20025;-75
2021/08/28 21:01:30;;;;;;;6.40;2.70;;;;;;;21.06;55.57;102386.97;5136519;27;20067;-76
2021/08/28 21:03:56;;;;;;;6.25;3.00;;;;;;;21.05;55.99;102387.84;5136440;27;20019;-74
2021/08/28 21:06:21;;;;;;;6.15;3.25;;;;;;;21.06;56.54;102392.22;5137608;27;20027;-76
2021/08/28 21:08:47;;;;;;;6.57;3.35;;;;;;;21.04;58.40;102390.47;5101851;27;20051;-76
2021/08/28 21:11:12;;;;;;;7.90;3.00;;;;;;;21.07;55.80;102396.56;5119831;27;20027;-75
2021/08/28 21:13:38;;;;;;;6.03;3.15;;;;;;;21.09;55.56;102389.59;5136597;27;20031;-75
2021/08/28 21:16:03;;;;;;;6.57;2.97;;;;;;;21.10;56.13;102390.44;5119174;27;20050;-74
2021/08/28 21:18:29;;;;;;;5.05;2.90;;;;;;;21.10;55.70;102391.34;5119074;27;20168;-74
2021/08/28 21:20:54;;;;;;;7.45;3.10;;;;;;;21.07;56.35;102390.47;5119056;27;20038;-76
2021/08/28 21:23:19;;;;;;;6.80;2.80;;;;;;;21.03;56.69;102394.81;5101920;27;20028;-75
2021/08/28 21:25:50;;;;;;;5.53;2.80;;;;;;;21.09;56.01;102388.72;5119399;27;20039;-75
2021/08/28 21:28:17;;;;;;;5.38;3.00;;;;;;;21.07;56.10;102385.22;5119504;27;20030;-73
2021/08/28 21:30:43;;;;;;;6.05;2.80;;;;;;;21.10;56.47;102383.50;5135940;27;20106;-75
2021/08/28 21:33:08;;;;;;;6.75;3.00;;;;;;;21.06;57.45;102386.13;5101938;27;20441;-76
2021/08/28 21:35:33;;;;;;;5.45;2.90;;;;;;;21.10;56.50;102385.22;5135918;27;20042;-76
2021/08/28 21:37:59;;;;;;;7.60;2.80;;;;;;;21.12;56.49;102386.09;5118651;27;20113;-75
2021/08/28 21:40:24;;;;;;;5.25;2.95;;;;;;;21.11;56.20;102380.00;5101547;27;20038;-73
2021/08/28 21:42:50;;;;;;;6.68;2.92;;;;;;;21.12;56.29;102383.47;5137044;27;20038;-76
2021/08/28 21:45:15;;;;;;;8.70;3.20;;;;;;;21.15;56.22;102378.25;5118603;27;20376;-76
2021/08/28 21:47:41;;;;;;;6.13;2.63;;;;;;;21.13;57.11;102382.63;5135728;27;20064;-75
2021/08/28 21:50:06;;;;;;;5.13;2.40;;;;;;;21.14;57.27;102376.50;5135782;27;20120;-76
2021/08/28 21:52:33;;;;;;;5.78;3.00;;;;;;;21.09;57.63;102380.88;5137143;27;20363;-74
2021/08/28 21:54:58;;;;;;;6.10;2.83;;;;;;;21.01;59.23;102382.59;5136890;27;20031;-75
2021/08/28 21:57:24;;;;;;;8.25;3.13;;;;;;;20.95;59.79;102375.63;5101349;27;20034;-76
2021/08/28 21:59:49;;;;;;;8.27;2.95;;;;;;;20.88;60.08;102377.38;5135427;27;20468;-76
2021/08/28 22:02:15;;;;;;;5.07;2.83;;;;;;;20.91;61.38;102374.75;5136707;27;20098;-73
2021/08/28 22:04:40;;;;;;;6.90;3.25;;;;;;;20.91;60.53;102377.38;5118420;27;20039;-74
2021/08/28 22:07:05;;;;;;;7.57;3.13;;;;;;;20.92;60.06;102383.47;5118006;27;20497;-76
2021/08/28 22:09:31;;;;;;;8.23;3.20;;;;;;;20.88;61.59;102384.34;5136352;27;20564;-74
2021/08/28 22:11:56;;;;;;;8.65;3.20;;;;;;;20.95;59.91;102380.88;5101181;27;20027;-74
2021/08/28 22:14:21;;;;;;;9.60;3.10;;;;;;;21.04;57.20;102385.25;5118066;27;20079;-73
2021/08/28 22:16:47;;;;;;;6.82;3.00;;;;;;;21.11;56.72;102386.97;5117938;27;20069;-74
2021/08/28 22:19:12;;;;;;;10.43;3.05;;;;;;;21.11;56.73;102380.00;5136311;27;20461;-75
2021/08/28 22:21:38;;;;;;;6.80;2.72;;;;;;;21.10;56.50;102379.97;5134857;27;20019;-76
2021/08/28 22:24:03;;;;;;;5.45;2.90;;;;;;;21.11;56.76;102384.34;5100843;27;20035;-75
2021/08/28 22:26:29;;;;;;;7.47;3.00;;;;;;;21.13;56.33;102380.88;5136462;27;20106;-75
2021/08/28 22:28:54;;;;;;;8.27;2.95;;;;;;;21.12;56.33;102378.22;5136057;27;20053;-76
2021/08/28 22:31:20;;;;;;;6.47;3.08;;;;;;;21.11;56.26;102374.75;5117922;27;20433;-73
2021/08/28 22:33:45;;;;;;;8.07;3.00;;;;;;;21.13;56.47;102373.00;5134726;27;20087;-75
2021/08/28 22:36:11;;;;;;;11.63;2.95;;;;;;;21.15;56.27;102371.28;5117815;27;20503;-76
2021/08/28 22:38:37;;;;;;;9.20;3.40;;;;;;;21.15;56.17;102370.41;5135952;27;20075;-75
2021/08/28 22:41:03;;;;;;;10.65;2.88;;;;;;;21.19;56.33;102372.16;5134968;27;20395;-76
2021/08/28 22:43:29;;;;;;;6.32;2.80;;;;;;;21.19;55.88;102369.53;5135922;27;20051;-76
2021/08/28 22:45:54;;;;;;;7.63;3.25;;;;;;;21.19;56.06;102372.16;5117752;27;20114;-75
2021/08/28 22:48:20;;;;;;;9.57;3.30;;;;;;;21.15;56.08;102376.50;5135755;27;20027;-75
2021/08/28 22:50:45;;;;;;;8.93;3.03;;;;;;;21.17;56.07;102369.53;5100256;27;20474;-76
2021/08/28 22:53:10;;;;;;;5.88;2.92;;;;;;;21.17;56.42;102371.28;5134343;27;20027;-77
2021/08/28 22:55:36;;;;;;;9.60;3.00;;;;;;;21.17;56.41;102366.91;5117349;27;20380;-75
2021/08/28 22:58:02;;;;;;;7.57;3.08;;;;;;;21.21;56.14;102366.88;5117246;27;20188;-74
2021/08/28 23:00:27;;;;;;;7.43;3.10;;;;;;;21.14;56.44;102366.91;5135527;27;20027;-75
2021/08/28 23:02:53;;;;;;;5.78;2.90;;;;;;;21.20;56.29;102367.78;5135621;27;20019;-76
2021/08/28 23:05:18;;;;;;;5.78;2.75;;;;;;;21.16;56.24;102359.03;5135699;27;20106;-75
2021/08/28 23:07:44;;;;;;;6.05;2.80;;;;;;;21.19;56.17;102360.78;5134423;27;20109;-76
2021/08/28 23:10:10;;;;;;;6.60;3.17;;;;;;;21.16;56.17;102366.91;5134021;27;20027;-76
2021/08/28 23:12:35;;;;;;;5.43;2.92;;;;;;;21.17;56.16;102364.28;5116887;27;20019;-76
2021/08/28 23:15:02;;;;;;;11.15;3.00;;;;;;;21.19;56.23;102364.28;5133867;27;20075;-75
2021/08/28 23:17:29;;;;;;;5.93;2.67;;;;;;;21.21;56.07;102362.56;5133666;27;20045;-76
2021/08/28 23:19:55;;;;;;;8.93;3.00;;;;;;;21.22;56.57;102369.53;5133772;27;20034;-76
2021/08/28 23:22:21;;;;;;;6.70;2.80;;;;;;;21.19;55.91;102358.16;5134371;27;20050;-75
2021/08/28 23:24:46;;;;;;;8.00;3.03;;;;;;;21.17;56.25;102361.66;5116720;27;20073;-74
2021/08/28 23:27:11;;;;;;;6.18;2.90;;;;;;;21.20;56.13;102360.78;5116514;27;20030;-74
2021/08/28 23:29:37;;;;;;;9.05;3.30;;;;;;;21.20;55.85;102362.53;5116478;27;20456;-75
2021/08/28 23:32:02;;;;;;;6.75;2.70;;;;;;;21.20;55.86;102359.91;5133711;27;20023;-74
2021/08/28 23:34:28;;;;;;;7.43;3.00;;;;;;;21.22;55.89;102364.28;5133672;27;20019;-75
2021/08/28 23:36:53;;;;;;;5.85;2.65;;;;;;;21.15;55.63;102358.19;5099481;27;20038;-76
2021/08/28 23:39:18;;;;;;;4.50;2.70;;;;;;;21.19;55.77;102356.44;5133745;27;20488;-75
2021/08/28 23:41:46;;;;;;;5.88;2.70;;;;;;;21.20;55.86;102360.78;5116527;27;20026;-75
2021/08/28 23:44:11;;;;;;;7.13;2.72;;;;;;;21.23;55.63;102355.56;5133850;27;20030;-76
2021/08/28 23:46:37;;;;;;;8.07;2.60;;;;;;;21.19;55.59;102350.31;5133508;27;20027;-76
2021/08/28 23:49:03;;;;;;;5.22;2.83;;;;;;;21.21;55.71;102351.19;5116320;27;20499;-76
2021/08/28 23:51:28;;;;;;;5.28;2.58;;;;;;;21.19;55.43;102355.53;5133483;27;20030;-76
2021/08/28 23:53:54;;;;;;;5.75;2.65;;;;;;;21.19;55.50;102345.06;5116362;28;20023;-74
2021/08/28 23:56:19;;;;;;;5.30;2.60;;;;;;;21.19;55.38;102347.69;5134629;27;20059;-75
2021/08/28 23:58:44;;;;;;;3.90;2.60;;;;;;;21.19;55.40;102347.69;5099143;27;20447;-75
